Time;durP1;ratioP1;P1;durP2;ratioP2;P2;SDS_P1;SDS_P2;PMS_P1;PMS_P2;Temp;Humidity;BMP_temperature;BMP_pressure;BME280_temperature;BME280_humidity;BME280_pressure;Samples;Min_cycle;Max_cycle;Signal;HPM_P1;HPM_P2
2022/11/05 00:09:41;;;;;;;5.50;3.20;;;;;;;7.87;98.22;95252.41;4967567;28;20204;-81
2022/11/05 00:17:50;;;;;;;4.67;2.40;;;;;;;7.90;98.62;95259.88;4973049;28;20318;-80
2022/11/05 00:20:16;;;;;;;4.13;2.70;;;;;;;7.93;98.39;95261.34;4956749;28;20209;-82
2022/11/05 00:25:26;;;;;;;2.90;2.60;;;;;;;7.98;98.30;95266.13;4965474;28;20182;-82
2022/11/05 00:27:52;;;;;;;2.73;2.47;;;;;;;7.97;98.37;95265.31;4962807;28;20208;-82
2022/11/05 00:30:22;;;;;;;4.40;2.10;;;;;;;7.93;98.70;95263.94;4953420;28;20220;-82
2022/11/05 00:32:49;;;;;;;2.53;2.00;;;;;;;7.99;98.70;95270.34;4971819;28;20188;-83
2022/11/05 00:35:16;;;;;;;2.20;2.00;;;;;;;8.01;98.96;95269.22;4970181;28;20184;-81
2022/11/05 00:37:42;;;;;;;2.33;2.13;;;;;;;7.94;98.57;95276.72;4968343;28;20384;-82
2022/11/05 00:40:08;;;;;;;2.27;2.07;;;;;;;7.99;98.79;95280.69;4965394;28;20277;-81
2022/11/05 00:45:17;;;;;;;3.43;2.87;;;;;;;7.96;98.53;95281.78;4958858;28;20183;-82
2022/11/05 00:50:27;;;;;;;2.53;2.10;;;;;;;7.95;98.84;95286.13;4967631;28;20215;-80
2022/11/05 00:52:54;;;;;;;2.40;2.20;;;;;;;7.95;99.21;95288.72;4964959;28;20571;-82
2022/11/05 00:55:29;;;;;;;2.97;2.40;;;;;;;7.93;99.17;95289.78;4964068;28;20193;-82
2022/11/05 00:57:56;;;;;;;2.20;2.10;;;;;;;7.95;98.91;95293.03;4965755;28;20180;-82
2022/11/05 01:00:22;;;;;;;4.07;2.73;;;;;;;7.77;99.85;95294.69;4960480;28;20208;-81
2022/11/05 01:02:48;;;;;;;2.90;2.60;;;;;;;7.84;99.82;95296.59;4955547;28;20217;-82
2022/11/05 01:05:13;;;;;;;2.90;2.70;;;;;;;7.87;99.29;95301.50;4954342;28;20189;-82
2022/11/05 01:07:39;;;;;;;2.50;2.30;;;;;;;7.89;98.86;95303.97;4958204;28;20255;-81
2022/11/05 01:10:04;;;;;;;3.37;2.60;;;;;;;7.94;99.64;95304.34;4946220;28;20203;-81
2022/11/05 01:12:30;;;;;;;3.17;2.87;;;;;;;7.86;99.55;95302.47;4961861;28;20188;-82
2022/11/05 01:14:56;;;;;;;2.97;2.50;;;;;;;7.98;99.05;95310.06;4948412;28;20222;-82
2022/11/05 01:17:21;;;;;;;4.17;2.67;;;;;;;7.97;99.26;95308.44;4968770;28;20272;-83
2022/11/05 01:19:47;;;;;;;4.67;3.10;;;;;;;7.88;99.57;95310.09;4960703;28;20211;-82
2022/11/05 01:22:12;;;;;;;3.23;2.93;;;;;;;7.90;99.62;95309.00;4967901;28;20208;-83
2022/11/05 01:24:37;;;;;;;3.20;2.90;;;;;;;8.00;99.46;95315.91;4949319;28;20193;-83
2022/11/05 01:27:03;;;;;;;3.07;2.83;;;;;;;7.96;99.50;95310.22;4974649;28;20222;-81
2022/11/05 01:29:28;;;;;;;3.57;3.00;;;;;;;8.00;99.43;95313.34;4964104;28;20193;-81
2022/11/05 01:31:53;;;;;;;3.47;3.10;;;;;;;8.04;99.37;95318.09;4982471;28;20221;-82
2022/11/05 01:34:18;;;;;;;3.67;3.00;;;;;;;8.05;99.35;95314.56;4995103;28;20192;-81
2022/11/05 01:36:44;;;;;;;4.23;3.30;;;;;;;8.09;99.19;95322.84;4993947;28;20560;-82
2022/11/05 01:39:09;;;;;;;4.50;3.53;;;;;;;8.09;99.15;95328.03;4991644;28;20197;-82
2022/11/05 01:41:34;;;;;;;4.43;3.27;;;;;;;8.05;99.45;95324.91;4952768;28;20216;-81
2022/11/05 01:44:00;;;;;;;3.63;3.13;;;;;;;8.07;99.67;95322.19;4963032;28;20204;-81
2022/11/05 01:46:29;;;;;;;4.13;3.73;;;;;;;8.07;99.61;95328.16;4942677;28;20606;-80
2022/11/05 01:48:56;;;;;;;3.90;3.50;;;;;;;8.01;100.00;95330.47;4971562;28;20190;-82
2022/11/05 01:51:24;;;;;;;4.67;3.90;;;;;;;8.03;100.00;95326.78;4969138;28;20752;-81
2022/11/05 01:53:54;;;;;;;4.97;3.50;;;;;;;8.02;100.00;95332.91;4946324;28;20540;-81
2022/11/05 01:56:28;;;;;;;3.43;2.90;;;;;;;8.05;100.00;95331.84;4966901;28;20184;-81
2022/11/05 01:59:00;;;;;;;3.50;2.83;;;;;;;8.12;100.00;95340.66;4973326;28;20216;-82
2022/11/05 02:01:26;;;;;;;3.63;3.30;;;;;;;8.08;100.00;95340.16;4959644;28;20252;-81
2022/11/05 02:03:57;;;;;;;4.50;3.00;;;;;;;8.08;100.00;95336.75;4976335;28;20263;-82
2022/11/05 02:06:23;;;;;;;3.27;2.90;;;;;;;8.10;100.00;95333.06;4972015;28;20185;-82
2022/11/05 02:09:05;;;;;;;3.77;3.03;;;;;;;8.08;100.00;95340.16;4969525;28;20228;-82
2022/11/05 02:11:30;;;;;;;4.20;3.53;;;;;;;8.04;100.00;95341.38;4966652;28;20304;-82
2022/11/05 02:13:56;;;;;;;5.07;3.00;;;;;;;8.07;100.00;95341.09;4967039;28;20220;-81
2022/11/05 02:16:47;;;;;;;3.87;3.27;;;;;;;8.08;100.00;95337.56;4974583;28;20184;-82
2022/11/05 02:19:45;;;;;;;3.70;3.20;;;;;;;8.03;100.00;95346.66;4976084;28;20180;-82
2022/11/05 02:22:19;;;;;;;3.60;3.30;;;;;;;8.04;100.00;95343.97;4957925;28;20213;-82
2022/11/05 02:25:01;;;;;;;4.17;3.70;;;;;;;8.02;100.00;95347.63;4993473;28;20191;-82
2022/11/05 02:27:37;;;;;;;6.30;4.50;;;;;;;8.02;100.00;95345.03;4975784;28;20226;-82
2022/11/05 02:30:06;;;;;;;5.07;4.57;;;;;;;8.07;100.00;95348.03;4960890;28;20196;-82
2022/11/05 02:32:56;;;;;;;5.60;4.83;;;;;;;8.06;100.00;95342.06;4973808;28;20192;-81
2022/11/05 02:36:03;;;;;;;6.13;5.57;;;;;;;8.07;100.00;95348.84;4977609;28;20656;-81
2022/11/05 02:38:51;;;;;;;7.53;5.70;;;;;;;8.07;100.00;95343.69;4957922;28;20303;-82
2022/11/05 02:41:30;;;;;;;8.87;7.00;;;;;;;8.00;100.00;95345.19;4969616;28;20204;-81
2022/11/05 02:44:12;;;;;;;8.33;7.10;;;;;;;8.03;100.00;95350.06;4967310;28;20192;-80
2022/11/05 02:47:02;;;;;;;7.47;6.60;;;;;;;8.04;100.00;95346.56;4943149;28;20219;-82
2022/11/05 02:49:47;;;;;;;8.50;7.30;;;;;;;8.07;100.00;95355.81;4958006;28;20649;-80
2022/11/05 02:52:35;;;;;;;8.47;7.57;;;;;;;8.09;100.00;95346.94;4971666;28;20319;-82
2022/11/05 02:55:15;;;;;;;13.87;8.77;;;;;;;8.02;100.00;95345.84;4970663;28;20595;-81
2022/11/05 02:57:45;;;;;;;8.60;7.70;;;;;;;8.00;100.00;95342.59;4987029;28;20212;-82
2022/11/05 03:00:36;;;;;;;8.93;8.03;;;;;;;8.07;100.00;95346.28;4992446;28;20212;-82
2022/11/05 03:03:02;;;;;;;10.10;8.43;;;;;;;8.05;100.00;95350.78;4962911;28;20186;-83
2022/11/05 03:05:37;;;;;;;10.30;8.37;;;;;;;8.11;100.00;95347.63;4959638;28;20263;-82
2022/11/05 03:08:21;;;;;;;9.33;8.33;;;;;;;8.12;100.00;95351.00;4947095;28;20758;-81
2022/11/05 03:11:11;;;;;;;10.93;8.20;;;;;;;8.13;100.00;95352.69;4974887;28;20204;-82
2022/11/05 03:13:52;;;;;;;7.77;7.07;;;;;;;8.12;100.00;95357.00;4972968;28;20224;-81
2022/11/05 03:16:20;;;;;;;6.43;5.70;;;;;;;8.08;100.00;95355.66;4971021;28;20199;-81
2022/11/05 03:19:10;;;;;;;5.83;5.33;;;;;;;8.11;100.00;95357.97;4972359;28;20689;-81
2022/11/05 03:21:46;;;;;;;4.20;3.80;;;;;;;7.92;100.00;95363.13;4968002;28;20212;-82
2022/11/05 03:24:22;;;;;;;3.40;2.87;;;;;;;7.96;100.00;95367.09;4982215;28;20220;-81
2022/11/05 03:26:56;;;;;;;3.63;3.23;;;;;;;8.02;100.00;95371.72;4954409;28;20208;-81
2022/11/05 03:29:28;;;;;;;3.17;2.83;;;;;;;7.98;100.00;95375.53;4972243;28;20192;-81
2022/11/05 03:31:55;;;;;;;3.20;2.90;;;;;;;7.96;100.00;95377.44;4944458;28;20213;-80
2022/11/05 03:34:26;;;;;;;2.87;2.67;;;;;;;7.99;100.00;95384.94;4970134;28;20679;-81
2022/11/05 03:36:53;;;;;;;4.37;2.50;;;;;;;7.94;100.00;95377.56;4978640;28;20255;-82
2022/11/05 03:39:29;;;;;;;3.53;2.77;;;;;;;8.00;100.00;95389.13;4964771;28;20554;-80
2022/11/05 03:41:56;;;;;;;3.33;3.03;;;;;;;7.91;100.00;95384.78;4973991;28;20302;-82
2022/11/05 03:44:28;;;;;;;3.10;2.80;;;;;;;7.92;100.00;95394.97;4974200;28;20189;-81
2022/11/05 03:46:57;;;;;;;3.70;2.90;;;;;;;7.88;100.00;95393.63;4972803;28;20230;-81
2022/11/05 03:49:29;;;;;;;3.60;3.30;;;;;;;7.88;100.00;95395.41;4971799;28;20599;-80
2022/11/05 03:52:18;;;;;;;4.57;4.17;;;;;;;7.74;100.00;95396.59;4968661;28;20646;-80
2022/11/05 03:54:43;;;;;;;8.20;5.93;;;;;;;7.75;100.00;95408.56;4965209;28;20669;-81
2022/11/05 03:57:11;;;;;;;7.77;6.73;;;;;;;7.71;100.00;95411.56;4961668;28;20293;-81
2022/11/05 03:59:43;;;;;;;9.83;8.63;;;;;;;7.74;100.00;95416.47;4960201;28;20217;-81
2022/11/05 04:02:10;;;;;;;9.73;8.73;;;;;;;7.73;100.00;95417.41;4955824;28;20260;-81
2022/11/05 04:04:35;;;;;;;10.77;9.20;;;;;;;7.74;100.00;95424.22;4956964;28;20196;-82
2022/11/05 04:15:13;;;;;;;5.83;5.33;;;;;;;7.57;100.00;95428.25;4969186;28;20667;-81
2022/11/05 04:17:38;;;;;;;4.77;3.97;;;;;;;7.55;100.00;95428.38;4963482;28;20220;-82
2022/11/05 04:25:32;;;;;;;6.50;5.80;;;;;;;7.50;100.00;95434.88;4973136;28;20196;-81
2022/11/05 04:27:59;;;;;;;17.73;7.53;;;;;;;7.47;100.00;95435.16;4969640;28;20212;-82
2022/11/05 04:30:24;;;;;;;8.50;7.70;;;;;;;7.54;100.00;95439.69;4974963;28;20212;-81
2022/11/05 04:32:59;;;;;;;8.50;7.33;;;;;;;7.61;100.00;95443.38;4973842;28;20204;-80
2022/11/05 04:35:26;;;;;;;7.97;7.20;;;;;;;7.58;100.00;95438.44;4961420;28;20215;-82
2022/11/05 04:37:51;;;;;;;8.00;7.07;;;;;;;7.51;100.00;95442.53;4963803;28;20555;-81
2022/11/05 04:40:16;;;;;;;8.13;7.27;;;;;;;7.51;100.00;95437.38;4967361;28;20311;-81
2022/11/05 04:42:42;;;;;;;9.00;8.10;;;;;;;7.63;100.00;95451.81;4973130;28;20200;-81
2022/11/05 04:45:07;;;;;;;16.27;12.50;;;;;;;7.57;100.00;95446.34;4973039;28;20196;-81
2022/11/05 04:47:32;;;;;;;14.30;11.27;;;;;;;7.56;100.00;95442.13;4973936;28;20543;-82
2022/11/05 04:49:58;;;;;;;18.17;11.77;;;;;;;7.51;100.00;95439.94;4954265;28;20204;-82
2022/11/05 04:52:23;;;;;;;15.27;12.43;;;;;;;7.63;100.00;95448.41;4951313;28;20829;-82
2022/11/05 04:54:48;;;;;;;21.17;14.67;;;;;;;7.62;100.00;95451.94;4972553;28;20200;-82
2022/11/05 04:57:13;;;;;;;14.90;10.40;;;;;;;7.52;100.00;95445.94;4955406;28;20196;-82
2022/11/05 04:59:39;;;;;;;12.50;10.17;;;;;;;7.53;100.00;95448.38;4954744;28;20209;-83
2022/11/05 05:02:05;;;;;;;12.83;11.20;;;;;;;7.58;100.00;95461.72;4955309;28;20220;-83
2022/11/05 05:04:30;;;;;;;14.70;13.13;;;;;;;7.51;100.00;95462.34;4957897;28;20193;-81
2022/11/05 05:06:55;;;;;;;17.70;14.17;;;;;;;7.56;100.00;95463.63;4960619;28;20217;-83
2022/11/05 05:09:21;;;;;;;30.57;15.93;;;;;;;7.53;100.00;95463.88;4963993;28;20646;-82
2022/11/05 05:11:46;;;;;;;24.97;17.07;;;;;;;7.57;100.00;95469.59;4944413;28;20216;-82
2022/11/05 05:14:11;;;;;;;16.23;13.83;;;;;;;7.58;100.00;95466.88;4957754;28;20196;-82
2022/11/05 05:16:37;;;;;;;20.33;15.87;;;;;;;7.47;100.00;95469.56;4939143;28;20650;-82
2022/11/05 05:19:02;;;;;;;22.97;19.40;;;;;;;7.66;100.00;95479.16;4957950;28;20181;-83
2022/11/05 05:21:40;;;;;;;47.07;18.63;;;;;;;7.51;100.00;95476.13;4973689;28;20291;-82
2022/11/05 05:24:15;;;;;;;20.97;16.87;;;;;;;7.56;100.00;95483.47;4971790;28;20196;-83
2022/11/05 05:26:43;;;;;;;22.73;16.53;;;;;;;7.61;100.00;95487.31;4953498;28;20298;-83
2022/11/05 05:29:09;;;;;;;20.90;14.43;;;;;;;7.45;100.00;95486.16;4969281;28;20185;-82
2022/11/05 05:31:34;;;;;;;21.70;15.60;;;;;;;7.38;100.00;95493.59;4956422;28;20205;-83
2022/11/05 05:34:00;;;;;;;20.77;15.20;;;;;;;7.36;100.00;95498.09;4957517;28;20192;-82
2022/11/05 05:36:25;;;;;;;24.30;18.00;;;;;;;7.49;100.00;95498.66;4960540;28;20197;-82
2022/11/05 05:38:51;;;;;;;19.33;15.07;;;;;;;7.37;100.00;95502.31;4972469;28;20188;-82
2022/11/05 05:41:16;;;;;;;12.53;10.33;;;;;;;7.36;100.00;95513.59;4973884;28;20204;-82
2022/11/05 05:43:42;;;;;;;10.10;8.10;;;;;;;7.40;100.00;95504.63;4958257;28;20194;-82
2022/11/05 05:46:09;;;;;;;10.20;8.47;;;;;;;7.45;100.00;95502.47;4956672;28;20223;-82
2022/11/05 05:48:34;;;;;;;8.63;7.53;;;;;;;7.48;100.00;95512.53;4958142;28;20268;-82
2022/11/05 05:51:04;;;;;;;8.07;6.57;;;;;;;7.48;100.00;95511.72;4960869;28;20240;-81
2022/11/05 05:53:30;;;;;;;7.00;6.13;;;;;;;7.42;100.00;95519.97;4964388;28;20197;-81
2022/11/05 05:55:56;;;;;;;7.90;6.13;;;;;;;7.41;100.00;95518.34;4972822;28;20188;-81
2022/11/05 05:58:22;;;;;;;7.93;6.87;;;;;;;7.37;100.00;95522.97;4969560;28;20551;-82
2022/11/05 06:00:47;;;;;;;9.73;8.03;;;;;;;7.29;100.00;95521.03;4975761;28;20680;-83
2022/11/05 06:03:13;;;;;;;11.80;8.40;;;;;;;7.30;100.00;95519.25;4974697;28;20247;-82
2022/11/05 06:05:41;;;;;;;8.90;8.00;;;;;;;7.29;100.00;95522.78;4973017;28;20275;-81
2022/11/05 06:08:06;;;;;;;11.90;8.40;;;;;;;7.40;100.00;95530.44;4969971;28;20209;-83
2022/11/05 06:10:37;;;;;;;19.67;11.67;;;;;;;7.26;100.00;95531.63;4970521;28;20278;-82
2022/11/05 06:13:03;;;;;;;15.50;11.50;;;;;;;7.31;100.00;95537.19;4980550;28;20192;-82
2022/11/05 06:15:28;;;;;;;117.93;15.17;;;;;;;7.26;100.00;95544.53;4964699;28;20224;-82
2022/11/05 06:17:53;;;;;;;19.80;11.90;;;;;;;7.31;100.00;95544.13;4967810;28;20205;-83
2022/11/05 06:20:19;;;;;;;219.57;22.87;;;;;;;7.32;100.00;95549.16;4950857;28;20645;-82
2022/11/05 06:22:53;;;;;;;50.80;14.20;;;;;;;7.30;100.00;95547.66;4976471;28;20196;-82
2022/11/05 06:25:18;;;;;;;160.20;16.57;;;;;;;7.20;100.00;95557.13;4958713;28;20184;-83
2022/11/05 06:27:44;;;;;;;112.10;15.07;;;;;;;7.24;100.00;95567.06;4959484;28;20219;-82
2022/11/05 06:30:09;;;;;;;207.67;20.23;;;;;;;7.21;100.00;95569.91;4960323;28;20205;-83
2022/11/05 06:32:35;;;;;;;96.03;13.47;;;;;;;7.26;100.00;95572.94;4961453;28;20554;-82
2022/11/05 06:35:00;;;;;;;49.53;12.93;;;;;;;7.25;100.00;95576.47;4952471;28;20345;-82
2022/11/05 06:37:26;;;;;;;27.77;9.57;;;;;;;7.22;100.00;95576.72;4952834;28;20204;-82
2022/11/05 06:39:52;;;;;;;71.87;12.17;;;;;;;7.13;100.00;95587.78;4965924;28;20198;-82
2022/11/05 06:42:17;;;;;;;36.33;10.80;;;;;;;7.20;100.00;95591.53;4982248;28;20189;-81
2022/11/05 06:44:42;;;;;;;20.77;9.90;;;;;;;7.17;100.00;95585.81;4957577;28;20256;-82
2022/11/05 06:47:07;;;;;;;11.87;9.03;;;;;;;7.11;100.00;95600.03;4959293;28;20197;-82
2022/11/05 06:49:33;;;;;;;10.10;8.60;;;;;;;6.95;100.00;95603.03;4963667;28;20196;-83
2022/11/05 06:51:58;;;;;;;10.37;8.80;;;;;;;6.89;100.00;95606.13;4952558;28;20252;-82
2022/11/05 06:54:24;;;;;;;9.50;7.53;;;;;;;6.82;100.00;95602.38;4969415;28;20188;-82
2022/11/05 06:56:49;;;;;;;12.10;8.37;;;;;;;6.77;100.00;95615.66;4966661;28;20193;-82
2022/11/05 06:59:14;;;;;;;11.43;9.07;;;;;;;6.91;100.00;95619.72;4977101;28;20184;-83
2022/11/05 07:01:39;;;;;;;12.00;8.93;;;;;;;6.88;100.00;95621.72;4978153;28;20774;-83
2022/11/05 07:04:05;;;;;;;10.33;7.93;;;;;;;6.82;100.00;95633.38;4963591;28;20653;-82
2022/11/05 07:06:30;;;;;;;9.70;7.17;;;;;;;6.79;100.00;95636.16;4966488;28;20197;-82
2022/11/05 07:08:56;;;;;;;7.83;6.57;;;;;;;6.82;100.00;95644.50;4949964;29;20188;-80
2022/11/05 07:11:21;;;;;;;7.27;6.27;;;;;;;6.78;100.00;95647.44;4962253;28;20695;-84
2022/11/05 07:13:46;;;;;;;7.20;5.67;;;;;;;6.80;100.00;95650.72;4959994;28;20221;-84
2022/11/05 07:16:12;;;;;;;9.63;6.07;;;;;;;6.84;100.00;95652.13;4963330;28;20176;-80
2022/11/05 07:18:37;;;;;;;7.00;6.30;;;;;;;6.88;100.00;95653.50;4990782;28;20173;-81
2022/11/05 07:21:02;;;;;;;8.40;6.27;;;;;;;6.79;100.00;95657.63;4996672;28;20200;-82
2022/11/05 07:23:28;;;;;;;8.23;6.37;;;;;;;6.96;100.00;95661.47;4970276;28;20185;-80
2022/11/05 07:25:53;;;;;;;8.60;6.30;;;;;;;6.96;100.00;95665.81;4985737;28;20210;-83
2022/11/05 07:28:18;;;;;;;7.27;5.87;;;;;;;7.08;100.00;95657.09;4970662;28;20220;-83
2022/11/05 07:30:47;;;;;;;7.17;5.97;;;;;;;7.09;100.00;95662.13;4947589;28;20220;-82
2022/11/05 07:33:12;;;;;;;6.40;4.93;;;;;;;7.08;100.00;95664.84;4963251;28;20176;-82
2022/11/05 07:35:37;;;;;;;6.90;5.20;;;;;;;7.04;100.00;95674.56;4951498;28;20186;-82
2022/11/05 07:38:03;;;;;;;6.77;4.30;;;;;;;7.05;100.00;95676.22;4970069;28;20666;-82
2022/11/05 07:40:28;;;;;;;6.43;5.57;;;;;;;6.96;100.00;95683.88;4974336;28;20251;-82
2022/11/05 07:42:56;;;;;;;6.63;4.80;;;;;;;7.06;100.00;95690.75;4975655;28;20185;-82
2022/11/05 07:45:23;;;;;;;8.00;5.60;;;;;;;6.95;100.00;95695.16;4960512;28;20195;-82
2022/11/05 07:47:56;;;;;;;8.07;6.10;;;;;;;6.96;100.00;95701.94;4971644;28;20212;-82
2022/11/05 07:50:24;;;;;;;8.00;5.70;;;;;;;6.93;100.00;95699.63;4974536;28;20701;-82
2022/11/05 07:52:50;;;;;;;7.40;5.90;;;;;;;6.93;100.00;95699.63;4962034;28;20219;-83
2022/11/05 07:55:17;;;;;;;8.57;5.67;;;;;;;7.06;100.00;95708.84;4966278;28;20224;-82
2022/11/05 07:57:47;;;;;;;7.67;5.90;;;;;;;7.01;100.00;95708.41;4972274;28;20180;-82
2022/11/05 08:00:19;;;;;;;6.47;5.53;;;;;;;7.20;100.00;95712.09;4968834;28;20596;-82
2022/11/05 08:03:21;;;;;;;8.37;5.93;;;;;;;7.29;100.00;95709.59;4957268;28;20205;-83
2022/11/05 08:05:46;;;;;;;6.13;5.13;;;;;;;7.42;100.00;95714.59;4962945;28;20237;-79
2022/11/05 08:08:14;;;;;;;7.37;5.93;;;;;;;7.49;100.00;95710.56;4955193;28;20200;-80
2022/11/05 08:10:40;;;;;;;6.70;5.53;;;;;;;7.58;99.75;95712.38;4961988;28;20204;-79
2022/11/05 08:13:06;;;;;;;6.40;5.10;;;;;;;7.58;99.45;95720.16;4972878;28;20220;-83
2022/11/05 08:15:32;;;;;;;6.03;5.43;;;;;;;7.63;100.00;95724.94;4958788;28;20550;-83
2022/11/05 08:17:59;;;;;;;5.80;5.20;;;;;;;7.77;99.78;95718.63;4972130;28;20200;-83
2022/11/05 08:20:25;;;;;;;5.43;4.93;;;;;;;7.69;99.32;95726.22;4964197;28;20219;-82
2022/11/05 08:22:50;;;;;;;6.93;4.93;;;;;;;7.70;99.29;95722.69;4966789;28;20248;-83
2022/11/05 08:25:15;;;;;;;6.07;5.20;;;;;;;7.73;98.87;95725.84;4965485;28;20220;-83
2022/11/05 08:27:41;;;;;;;6.50;4.63;;;;;;;7.78;98.21;95730.66;4959132;28;20351;-83
2022/11/05 08:30:07;;;;;;;6.70;4.60;;;;;;;7.67;98.59;95728.91;4942189;28;20197;-83
2022/11/05 08:32:33;;;;;;;7.63;5.20;;;;;;;7.75;98.71;95734.28;4965270;28;20196;-83
2022/11/05 08:34:58;;;;;;;8.20;6.33;;;;;;;7.54;98.72;95739.44;4973436;28;20188;-83
2022/11/05 08:37:23;;;;;;;7.87;5.60;;;;;;;7.57;98.49;95738.38;4972891;28;20757;-83
2022/11/05 08:39:49;;;;;;;8.20;6.37;;;;;;;7.56;99.04;95744.47;4959236;28;20200;-83
2022/11/05 08:42:14;;;;;;;8.10;6.33;;;;;;;7.65;98.43;95747.13;4956243;28;20224;-83
2022/11/05 08:44:39;;;;;;;9.17;6.90;;;;;;;7.54;98.77;95743.78;4972350;28;20251;-83
2022/11/05 08:47:05;;;;;;;8.63;6.43;;;;;;;7.63;98.83;95743.03;4970994;28;20215;-83
2022/11/05 08:49:30;;;;;;;8.20;6.83;;;;;;;7.60;99.16;95753.63;4967886;28;20200;-83
2022/11/05 08:51:55;;;;;;;8.83;6.30;;;;;;;7.56;99.03;95757.41;4965016;28;20212;-83
2022/11/05 08:54:21;;;;;;;9.67;6.63;;;;;;;7.77;98.56;95750.47;4968506;28;20569;-83
2022/11/05 08:56:46;;;;;;;9.20;6.90;;;;;;;7.95;97.82;95758.50;4973162;28;20192;-83
2022/11/05 08:59:11;;;;;;;8.97;6.47;;;;;;;8.04;96.71;95765.53;4982398;28;20185;-82
2022/11/05 09:01:37;;;;;;;9.73;6.47;;;;;;;7.83;96.23;95756.91;4969610;28;20232;-83
2022/11/05 09:04:02;;;;;;;8.07;6.07;;;;;;;7.98;95.43;95765.19;4971255;28;20284;-84
2022/11/05 09:06:28;;;;;;;9.30;6.30;;;;;;;7.90;96.16;95764.06;4948678;28;20196;-79
2022/11/05 09:08:53;;;;;;;7.80;6.87;;;;;;;8.04;95.37;95756.91;4982201;28;20226;-84
2022/11/05 09:11:19;;;;;;;7.13;6.40;;;;;;;7.90;96.89;95760.66;4949044;28;20219;-85
2022/11/05 09:13:44;;;;;;;7.07;6.27;;;;;;;8.01;96.45;95763.16;4951261;28;20208;-84
2022/11/05 09:16:17;;;;;;;8.03;6.13;;;;;;;7.97;96.39;95766.16;4974634;28;20215;-83
2022/11/05 09:18:42;;;;;;;7.03;5.93;;;;;;;8.15;94.69;95762.03;4969446;28;20189;-83
2022/11/05 09:21:07;;;;;;;7.87;6.63;;;;;;;8.35;94.50;95768.16;4973971;28;20590;-83
2022/11/05 09:23:33;;;;;;;6.93;5.97;;;;;;;8.37;92.81;95769.66;4969685;28;20200;-84
2022/11/05 09:25:58;;;;;;;7.50;5.97;;;;;;;8.57;92.20;95767.16;4967355;28;20192;-83
2022/11/05 09:28:24;;;;;;;8.33;5.40;;;;;;;8.29;92.71;95777.22;4957769;28;20224;-82
2022/11/05 09:30:50;;;;;;;7.43;5.70;;;;;;;8.53;91.16;95771.78;4973420;28;20212;-79
2022/11/05 09:33:20;;;;;;;9.20;6.00;;;;;;;8.41;91.14;95770.25;4949098;28;20225;-82
2022/11/05 09:35:46;;;;;;;8.17;6.07;;;;;;;8.54;91.54;95781.19;4991518;28;20208;-83
2022/11/05 09:38:12;;;;;;;7.37;5.63;;;;;;;8.37;92.25;95776.59;4954824;28;20249;-81
2022/11/05 09:40:46;;;;;;;8.83;6.57;;;;;;;8.27;93.33;95786.88;4969148;28;20208;-82
2022/11/05 09:43:18;;;;;;;8.23;5.97;;;;;;;8.43;93.19;95783.88;4966160;28;20201;-83
2022/11/05 09:45:46;;;;;;;7.40;6.43;;;;;;;8.57;92.96;95782.69;4976540;28;20223;-83
2022/11/05 09:48:15;;;;;;;10.43;6.80;;;;;;;8.68;92.87;95785.22;4965696;28;20213;-83
2022/11/05 09:50:43;;;;;;;11.13;7.23;;;;;;;8.75;92.07;95788.94;4968213;28;20571;-82
2022/11/05 09:53:19;;;;;;;6.30;5.70;;;;;;;8.68;92.22;95791.22;4974817;28;20184;-83
2022/11/05 09:55:50;;;;;;;10.17;6.43;;;;;;;8.84;92.28;95797.69;4955884;28;20189;-82
2022/11/05 09:58:37;;;;;;;7.10;5.47;;;;;;;8.94;90.62;95803.72;4970925;28;20213;-82
2022/11/05 10:01:05;;;;;;;12.70;9.30;;;;;;;8.49;91.17;95809.25;4986271;28;20267;-82
2022/11/05 10:04:17;;;;;;;12.10;9.47;;;;;;;8.62;90.13;95809.03;4971639;28;20185;-85
2022/11/05 10:06:48;;;;;;;8.20;7.27;;;;;;;8.70;89.75;95812.59;4965900;28;20196;-80
2022/11/05 10:09:23;;;;;;;10.10;7.30;;;;;;;8.82;89.88;95820.28;4973951;28;20188;-82
2022/11/05 10:11:53;;;;;;;8.80;7.90;;;;;;;8.82;91.09;95817.69;4972818;28;20209;-82
2022/11/05 10:14:23;;;;;;;10.03;6.97;;;;;;;8.75;90.22;95813.06;4976312;28;20188;-84
2022/11/05 10:16:57;;;;;;;10.70;6.30;;;;;;;8.79;91.53;95824.78;4966089;28;20191;-81
2022/11/05 10:19:25;;;;;;;7.47;6.60;;;;;;;8.82;89.36;95822.88;4970041;28;20219;-81
2022/11/05 10:22:08;;;;;;;8.27;6.47;;;;;;;8.93;90.38;95828.78;4969171;28;20208;-81
2022/11/05 10:24:34;;;;;;;11.17;6.77;;;;;;;9.02;89.05;95824.59;4975034;28;20216;-81
2022/11/05 10:26:59;;;;;;;8.80;6.33;;;;;;;9.16;87.67;95826.00;4960975;28;20240;-82
2022/11/05 10:29:28;;;;;;;11.27;6.00;;;;;;;9.19;87.06;95829.16;4950649;28;20192;-82
2022/11/05 10:31:55;;;;;;;7.50;5.63;;;;;;;9.21;86.23;95832.44;4959429;28;20258;-82
2022/11/05 10:34:21;;;;;;;6.90;5.43;;;;;;;9.38;86.24;95832.75;4987487;28;20189;-82
2022/11/05 10:36:47;;;;;;;14.17;8.70;;;;;;;9.51;85.71;95833.31;4963260;28;20289;-82
2022/11/05 10:39:17;;;;;;;8.43;6.67;;;;;;;9.51;85.86;95830.72;4974088;28;20305;-82
2022/11/05 10:41:52;;;;;;;11.70;6.87;;;;;;;9.44;86.59;95830.41;4966330;28;20213;-80
2022/11/05 10:44:32;;;;;;;7.03;5.97;;;;;;;9.50;86.96;95840.25;4958879;28;20192;-82
2022/11/05 10:47:30;;;;;;;7.13;6.43;;;;;;;9.56;86.33;95847.53;4969712;28;20677;-82
2022/11/05 10:50:21;;;;;;;8.27;5.73;;;;;;;9.58;84.92;95844.78;4951313;29;20204;-82
2022/11/05 10:52:57;;;;;;;7.93;6.60;;;;;;;9.62;85.04;95848.75;4958789;28;20611;-82
2022/11/05 10:55:34;;;;;;;8.23;7.07;;;;;;;9.77;84.47;95846.59;4958176;28;20189;-82
2022/11/05 10:58:11;;;;;;;9.07;7.10;;;;;;;9.70;84.39;95848.88;4971889;28;20660;-82
2022/11/05 11:00:37;;;;;;;9.37;7.73;;;;;;;9.45;85.66;95850.19;4987140;28;20240;-82
2022/11/05 11:03:04;;;;;;;9.10;7.07;;;;;;;9.61;86.29;95854.88;4951726;28;20220;-82
2022/11/05 11:05:36;;;;;;;9.87;6.87;;;;;;;9.68;85.00;95848.22;4964401;28;20251;-82
2022/11/05 11:08:22;;;;;;;9.03;6.60;;;;;;;9.57;84.70;95846.56;4945095;28;20644;-81
2022/11/05 11:10:50;;;;;;;9.70;8.13;;;;;;;9.64;85.07;95844.25;4970800;28;20287;-82
2022/11/05 11:13:49;;;;;;;20.93;15.70;;;;;;;9.73;85.38;95845.22;4958002;28;20234;-81
2022/11/05 11:16:19;;;;;;;11.10;8.77;;;;;;;9.78;84.93;95848.22;4971161;28;20189;-82
2022/11/05 11:18:44;;;;;;;15.83;12.30;;;;;;;9.84;84.66;95848.50;4947403;28;20185;-82
2022/11/05 11:21:18;;;;;;;17.27;12.07;;;;;;;9.74;84.06;95852.88;4972821;28;20288;-81
2022/11/05 11:23:56;;;;;;;17.97;13.73;;;;;;;9.79;84.51;95853.25;4969038;28;20211;-81
2022/11/05 11:26:24;;;;;;;14.13;10.87;;;;;;;9.93;83.48;95849.47;4972296;28;20532;-82
2022/11/05 11:28:57;;;;;;;12.23;8.53;;;;;;;9.72;84.87;95859.13;4974351;28;20297;-81
2022/11/05 11:31:28;;;;;;;11.53;8.27;;;;;;;9.41;85.70;95858.41;4944506;28;20240;-82
2022/11/05 11:34:00;;;;;;;11.30;9.13;;;;;;;9.68;85.76;95850.81;4966662;28;20189;-82
2022/11/05 11:36:32;;;;;;;13.03;9.10;;;;;;;9.64;85.95;95850.25;4988005;28;20216;-83
2022/11/05 11:38:59;;;;;;;10.10;7.27;;;;;;;9.69;84.58;95847.25;4958589;28;20212;-82
2022/11/05 11:41:28;;;;;;;11.77;7.60;;;;;;;9.76;84.61;95850.13;4975554;28;20307;-82
2022/11/05 11:44:11;;;;;;;12.50;9.67;;;;;;;9.72;83.34;95846.16;4961352;28;20193;-82
2022/11/05 11:46:36;;;;;;;12.57;8.00;;;;;;;9.86;81.56;95851.78;4952208;28;20184;-80
2022/11/05 11:49:02;;;;;;;8.87;6.17;;;;;;;9.70;80.59;95848.88;4965401;28;20207;-82
2022/11/05 11:51:39;;;;;;;8.83;7.93;;;;;;;9.92;79.84;95838.28;4962617;28;20255;-83
2022/11/05 11:54:07;;;;;;;14.17;10.40;;;;;;;9.84;82.36;95842.50;4987456;28;20184;-83
2022/11/05 11:56:43;;;;;;;11.37;9.83;;;;;;;10.16;81.69;95842.22;4965151;28;20193;-83
2022/11/05 11:59:22;;;;;;;11.33;8.83;;;;;;;10.24;79.09;95852.75;4970578;28;20192;-82
2022/11/05 12:02:17;;;;;;;13.63;10.77;;;;;;;10.16;80.65;95850.84;4968249;28;20211;-83
2022/11/05 12:04:54;;;;;;;13.67;10.80;;;;;;;10.05;80.58;95847.53;4965461;28;20197;-81
2022/11/05 12:07:19;;;;;;;26.20;17.63;;;;;;;9.78;80.45;95846.44;4959553;28;20220;-81
2022/11/05 12:09:59;;;;;;;13.67;9.40;;;;;;;9.94;81.37;95844.13;4959220;28;20273;-81
2022/11/05 12:12:39;;;;;;;9.27;6.40;;;;;;;10.10;78.46;95845.38;4973001;28;20180;-82
2022/11/05 12:15:10;;;;;;;8.97;7.47;;;;;;;10.16;78.96;95850.84;4971511;28;20223;-81
2022/11/05 12:17:45;;;;;;;12.93;8.57;;;;;;;9.96;80.76;95844.00;4972938;28;20239;-81
2022/11/05 12:20:44;;;;;;;8.77;7.43;;;;;;;9.76;80.80;95845.75;4989150;28;20485;-82
2022/11/05 12:23:57;;;;;;;13.13;7.50;;;;;;;9.51;82.30;95846.28;4980964;28;20189;-83